createdAt,value
2022-11-09T00:00:05.305Z,997
2022-11-09T00:03:05.483Z,997
2022-11-09T00:06:05.340Z,997
2022-11-09T00:09:12.702Z,997
2022-11-09T00:12:05.156Z,997
2022-11-09T00:15:05.307Z,996
2022-11-09T00:18:05.261Z,996
2022-11-09T00:21:05.253Z,996
2022-11-09T00:24:05.186Z,996
2022-11-09T00:27:05.288Z,996
2022-11-09T00:30:05.230Z,996
2022-11-09T00:33:05.152Z,996
2022-11-09T00:36:05.209Z,996
2022-11-09T00:39:05.171Z,996
2022-11-09T00:42:05.453Z,996
2022-11-09T00:45:05.140Z,996
2022-11-09T00:48:05.164Z,996
2022-11-09T00:51:05.268Z,996
2022-11-09T00:54:05.375Z,996
2022-11-09T00:57:05.253Z,996
2022-11-09T01:00:05.197Z,996
2022-11-09T01:03:05.259Z,996
2022-11-09T01:06:05.268Z,996
2022-11-09T01:09:05.243Z,996
2022-11-09T01:12:05.184Z,996
2022-11-09T01:15:05.274Z,996
2022-11-09T01:18:05.176Z,996
2022-11-09T01:21:05.137Z,996
2022-11-09T01:24:05.681Z,996
2022-11-09T01:27:05.329Z,996
2022-11-09T01:30:05.477Z,996
2022-11-09T01:33:05.217Z,996
2022-11-09T01:36:05.253Z,996
2022-11-09T01:39:05.192Z,996
2022-11-09T01:42:05.221Z,996
2022-11-09T01:45:05.302Z,996
2022-11-09T01:48:05.191Z,996
2022-11-09T01:51:05.269Z,996
2022-11-09T01:54:05.171Z,996
2022-11-09T01:57:05.159Z,996
2022-11-09T02:00:05.321Z,996
2022-11-09T02:03:05.131Z,996
2022-11-09T02:06:05.210Z,996
2022-11-09T02:09:05.321Z,996
2022-11-09T02:12:05.124Z,996
2022-11-09T02:15:05.138Z,996
2022-11-09T02:18:05.176Z,996
2022-11-09T02:21:05.121Z,996
2022-11-09T02:24:05.162Z,996
2022-11-09T02:27:05.238Z,996
2022-11-09T02:30:05.214Z,996
2022-11-09T02:33:05.212Z,996
2022-11-09T02:36:05.233Z,996
2022-11-09T02:39:05.212Z,996
2022-11-09T02:42:14.673Z,996
2022-11-09T02:45:05.257Z,996
2022-11-09T02:48:05.227Z,996
2022-11-09T02:51:05.212Z,996
2022-11-09T02:54:05.169Z,996
2022-11-09T02:57:05.334Z,996
2022-11-09T03:00:05.176Z,996
2022-11-09T03:03:05.239Z,996
2022-11-09T03:06:05.578Z,996
2022-11-09T03:09:05.202Z,996
2022-11-09T03:12:05.349Z,996
2022-11-09T03:15:05.323Z,996
2022-11-09T03:18:05.365Z,996
2022-11-09T03:21:05.517Z,996
2022-11-09T03:24:05.224Z,996
2022-11-09T03:27:05.116Z,996
2022-11-09T03:30:05.288Z,996
2022-11-09T03:33:05.190Z,996
2022-11-09T03:36:05.206Z,996
2022-11-09T03:39:05.154Z,996
2022-11-09T03:42:05.559Z,996
2022-11-09T03:45:05.276Z,996
2022-11-09T03:48:05.326Z,996
2022-11-09T03:51:05.143Z,996
2022-11-09T03:54:05.238Z,995
2022-11-09T03:57:05.110Z,995
2022-11-09T04:00:05.238Z,995
2022-11-09T04:03:05.218Z,995
2022-11-09T04:06:05.430Z,995
2022-11-09T04:09:05.143Z,995
2022-11-09T04:12:05.217Z,995
2022-11-09T04:15:05.184Z,995
2022-11-09T04:18:05.240Z,995
2022-11-09T04:21:05.394Z,995
2022-11-09T04:24:05.154Z,995
2022-11-09T04:27:05.286Z,995
2022-11-09T04:30:05.235Z,995
2022-11-09T04:33:05.272Z,995
2022-11-09T04:36:05.218Z,995
2022-11-09T04:39:05.180Z,995
2022-11-09T04:42:05.228Z,995
2022-11-09T04:45:05.186Z,995
2022-11-09T04:48:05.174Z,995
2022-11-09T04:51:05.155Z,995
2022-11-09T04:54:05.201Z,995
2022-11-09T04:57:05.185Z,995
2022-11-09T05:00:05.348Z,996
2022-11-09T05:03:05.121Z,996
2022-11-09T05:06:05.297Z,996
2022-11-09T05:09:05.150Z,996
2022-11-09T05:12:05.244Z,996
2022-11-09T05:15:05.122Z,996
2022-11-09T05:18:05.594Z,996
2022-11-09T05:21:05.093Z,996
2022-11-09T05:24:05.692Z,996
2022-11-09T05:27:05.201Z,996
2022-11-09T05:30:05.214Z,996
2022-11-09T05:33:05.184Z,996
2022-11-09T05:36:05.204Z,996
2022-11-09T05:39:05.165Z,996
2022-11-09T05:42:05.223Z,996
2022-11-09T05:45:46.815Z,996
2022-11-09T05:48:05.206Z,996
2022-11-09T05:51:05.170Z,996
2022-11-09T05:54:05.296Z,996
2022-11-09T05:57:05.152Z,996
2022-11-09T06:00:11.035Z,996
2022-11-09T06:03:05.190Z,996
2022-11-09T06:06:13.022Z,996
2022-11-09T06:09:05.394Z,996
2022-11-09T06:12:05.247Z,996
2022-11-09T06:15:05.169Z,996
2022-11-09T06:18:05.377Z,996
2022-11-09T06:21:05.225Z,996
2022-11-09T06:24:05.221Z,996
2022-11-09T06:27:05.149Z,996
2022-11-09T06:30:05.701Z,996
2022-11-09T06:33:05.208Z,996
2022-11-09T06:36:05.334Z,996
2022-11-09T06:39:05.246Z,996
2022-11-09T06:42:05.429Z,996
2022-11-09T06:45:05.180Z,996
2022-11-09T06:48:05.493Z,996
2022-11-09T06:51:05.450Z,996
2022-11-09T06:54:05.291Z,996
2022-11-09T07:00:05.338Z,996
2022-11-09T07:03:05.338Z,996
2022-11-09T07:06:05.234Z,996
2022-11-09T07:09:05.278Z,996
2022-11-09T07:12:05.203Z,996
2022-11-09T07:15:09.508Z,996
2022-11-09T07:18:05.287Z,996
2022-11-09T07:21:08.790Z,997
2022-11-09T07:24:05.283Z,997
2022-11-09T07:27:05.164Z,997
2022-11-09T07:30:05.428Z,997
2022-11-09T07:33:17.179Z,997
2022-11-09T07:36:05.291Z,997
2022-11-09T07:39:05.306Z,997
2022-11-09T07:42:05.304Z,997
2022-11-09T07:45:05.221Z,997
2022-11-09T07:48:05.370Z,997
2022-11-09T07:57:05.208Z,997
2022-11-09T08:03:05.336Z,997
2022-11-09T08:06:05.220Z,997
2022-11-09T08:09:05.294Z,997
2022-11-09T08:12:05.267Z,997
2022-11-09T08:15:05.228Z,997
2022-11-09T08:18:05.225Z,997
2022-11-09T08:21:05.222Z,997
2022-11-09T08:24:05.208Z,997
2022-11-09T08:27:05.247Z,997
2022-11-09T08:30:05.290Z,997
2022-11-09T08:33:05.198Z,997
2022-11-09T08:36:05.281Z,997
2022-11-09T08:39:05.193Z,997
2022-11-09T08:42:05.920Z,997
2022-11-09T08:45:05.321Z,997
2022-11-09T08:48:05.232Z,997
2022-11-09T08:51:05.356Z,997
2022-11-09T08:54:05.232Z,997
2022-11-09T08:57:05.221Z,997
2022-11-09T09:00:05.408Z,997
2022-11-09T09:03:05.277Z,997
2022-11-09T09:06:05.230Z,997
2022-11-09T09:09:05.263Z,997
2022-11-09T09:12:05.217Z,997
2022-11-09T09:15:05.238Z,997
2022-11-09T09:18:05.192Z,997
2022-11-09T09:21:05.197Z,997
2022-11-09T09:24:05.152Z,997
2022-11-09T09:27:05.228Z,997
2022-11-09T09:30:05.320Z,997
2022-11-09T09:33:05.199Z,997
2022-11-09T09:36:05.210Z,997
2022-11-09T09:39:05.248Z,997
2022-11-09T09:42:05.341Z,997
2022-11-09T09:45:05.309Z,997
2022-11-09T09:48:05.152Z,997
2022-11-09T09:51:05.178Z,997
2022-11-09T09:54:05.277Z,997
2022-11-09T09:57:05.215Z,997
2022-11-09T10:00:05.392Z,997
2022-11-09T10:03:05.148Z,997
2022-11-09T10:06:05.215Z,997
2022-11-09T10:09:05.233Z,997
2022-11-09T10:12:06.110Z,997
2022-11-09T10:15:05.270Z,996
2022-11-09T10:18:05.178Z,996
2022-11-09T10:21:05.138Z,996
2022-11-09T10:24:05.184Z,996
2022-11-09T10:27:05.129Z,997
2022-11-09T10:30:05.256Z,997
2022-11-09T10:33:05.241Z,997
2022-11-09T10:36:12.770Z,997
2022-11-09T10:39:05.151Z,997
2022-11-09T10:42:05.254Z,996
2022-11-09T10:45:05.181Z,996
2022-11-09T10:48:05.272Z,996
2022-11-09T10:51:05.310Z,996
2022-11-09T10:54:05.173Z,996
2022-11-09T10:57:11.487Z,996
2022-11-09T11:00:05.271Z,997
2022-11-09T11:03:05.344Z,997
2022-11-09T11:06:05.236Z,997
2022-11-09T11:09:05.308Z,997
2022-11-09T11:12:05.232Z,997
2022-11-09T11:15:05.154Z,997
2022-11-09T11:18:05.197Z,997
2022-11-09T11:21:05.261Z,997
2022-11-09T11:24:05.267Z,997
2022-11-09T11:27:11.543Z,997
2022-11-09T11:30:05.324Z,997
2022-11-09T11:33:05.282Z,997
2022-11-09T11:36:05.209Z,997
2022-11-09T11:39:05.183Z,997
2022-11-09T11:42:05.348Z,997
2022-11-09T11:45:44.662Z,997
2022-11-09T11:48:05.228Z,997
2022-11-09T11:51:05.224Z,997
2022-11-09T11:54:05.221Z,997
2022-11-09T11:57:05.181Z,997
2022-11-09T12:00:05.388Z,997
2022-11-09T12:03:05.609Z,997
2022-11-09T12:06:05.178Z,997
2022-11-09T12:09:05.331Z,997
2022-11-09T12:12:05.219Z,997
2022-11-09T12:15:05.333Z,997
2022-11-09T12:18:05.261Z,997
2022-11-09T12:21:05.146Z,997
2022-11-09T12:24:05.208Z,997
2022-11-09T12:27:36.366Z,997
2022-11-09T12:30:05.236Z,997
2022-11-09T12:33:05.161Z,997
2022-11-09T12:36:05.473Z,997
2022-11-09T12:39:05.469Z,997
2022-11-09T12:42:05.215Z,997
2022-11-09T12:45:05.232Z,997
2022-11-09T12:48:05.321Z,997
2022-11-09T12:51:05.272Z,997
2022-11-09T12:54:05.126Z,997
2022-11-09T12:57:05.204Z,997
2022-11-09T13:00:05.645Z,997
2022-11-09T13:03:05.211Z,997
2022-11-09T13:06:07.381Z,997
2022-11-09T13:09:05.265Z,997
2022-11-09T13:12:05.306Z,997
2022-11-09T13:15:05.200Z,997
2022-11-09T13:18:05.385Z,997
2022-11-09T13:21:05.214Z,997
2022-11-09T13:24:19.179Z,997
2022-11-09T13:27:05.378Z,997
2022-11-09T13:30:05.314Z,997
2022-11-09T13:33:05.227Z,997
2022-11-09T13:36:05.234Z,997
2022-11-09T13:39:05.245Z,997
2022-11-09T13:42:05.246Z,997
2022-11-09T13:45:05.176Z,997
2022-11-09T13:48:05.301Z,997
2022-11-09T13:51:05.270Z,997
2022-11-09T13:54:05.130Z,997
2022-11-09T13:57:05.233Z,997
2022-11-09T14:00:05.339Z,997
2022-11-09T14:03:05.239Z,997
2022-11-09T14:06:05.241Z,997
2022-11-09T14:09:05.208Z,997
2022-11-09T14:12:05.264Z,997
2022-11-09T14:15:05.225Z,997
2022-11-09T14:18:05.302Z,997
2022-11-09T14:21:05.304Z,997
2022-11-09T14:24:05.247Z,997
2022-11-09T14:27:05.168Z,997
2022-11-09T14:30:05.196Z,997
2022-11-09T14:33:05.189Z,997
2022-11-09T14:36:05.168Z,997
2022-11-09T14:39:05.299Z,997
2022-11-09T14:42:05.171Z,997
2022-11-09T14:45:05.208Z,997
2022-11-09T14:48:05.211Z,998
2022-11-09T14:51:05.285Z,998
2022-11-09T14:54:05.218Z,998
2022-11-09T14:57:05.271Z,998
2022-11-09T15:00:05.232Z,998
2022-11-09T15:03:05.220Z,998
2022-11-09T15:06:05.226Z,998
2022-11-09T15:09:05.169Z,998
2022-11-09T15:12:05.264Z,997
2022-11-09T15:15:05.303Z,997
2022-11-09T15:18:05.276Z,997
2022-11-09T15:21:05.323Z,997
2022-11-09T15:24:05.252Z,997
2022-11-09T15:27:05.189Z,997
2022-11-09T15:30:05.291Z,997
2022-11-09T15:33:05.236Z,998
2022-11-09T15:36:05.222Z,998
2022-11-09T15:39:05.061Z,998
2022-11-09T15:42:05.150Z,998
2022-11-09T15:45:05.493Z,998
2022-11-09T15:48:05.176Z,998
2022-11-09T15:51:05.156Z,998
2022-11-09T15:54:05.290Z,998
2022-11-09T15:57:05.175Z,998
2022-11-09T16:00:12.671Z,998
2022-11-09T16:03:05.198Z,998
2022-11-09T16:06:05.202Z,998
2022-11-09T16:09:05.223Z,998
2022-11-09T16:12:05.240Z,998
2022-11-09T16:15:05.181Z,998
2022-11-09T16:18:05.260Z,998
2022-11-09T16:21:05.132Z,998
2022-11-09T16:24:05.181Z,998
2022-11-09T16:27:12.720Z,998
2022-11-09T16:30:05.193Z,998
2022-11-09T16:33:05.243Z,999
2022-11-09T16:36:05.174Z,999
2022-11-09T16:39:05.149Z,999
2022-11-09T16:42:05.199Z,999
2022-11-09T16:45:05.226Z,999
2022-11-09T16:48:05.149Z,999
2022-11-09T16:51:05.247Z,999
2022-11-09T16:54:05.166Z,999
2022-11-09T16:57:05.220Z,999
2022-11-09T17:00:05.286Z,998
2022-11-09T17:03:05.120Z,998
2022-11-09T17:06:05.171Z,998
2022-11-09T17:09:05.181Z,998
2022-11-09T17:12:05.217Z,998
2022-11-09T17:15:05.179Z,998
2022-11-09T17:18:05.231Z,998
2022-11-09T17:21:05.245Z,998
2022-11-09T17:24:05.232Z,998
2022-11-09T17:27:05.085Z,998
2022-11-09T17:30:05.229Z,999
2022-11-09T17:33:05.186Z,999
2022-11-09T17:36:05.218Z,999
2022-11-09T17:39:05.131Z,999
2022-11-09T17:42:05.143Z,999
2022-11-09T17:45:05.158Z,999
2022-11-09T17:48:05.248Z,999
2022-11-09T17:51:05.180Z,999
2022-11-09T17:54:05.223Z,999
2022-11-09T17:57:05.133Z,999
2022-11-09T18:00:05.171Z,999
2022-11-09T18:03:05.197Z,999
2022-11-09T18:06:05.195Z,999
2022-11-09T18:09:45.908Z,999
2022-11-09T18:12:05.196Z,999
2022-11-09T18:15:05.131Z,999
2022-11-09T18:18:05.177Z,999
2022-11-09T18:21:05.173Z,999
2022-11-09T18:24:05.272Z,999
2022-11-09T18:27:05.195Z,1000
2022-11-09T18:30:05.245Z,1000
2022-11-09T18:33:05.175Z,1000
2022-11-09T18:36:05.217Z,1000
2022-11-09T18:39:05.274Z,1000
2022-11-09T18:42:05.154Z,1000
2022-11-09T18:45:05.145Z,1000
2022-11-09T18:48:05.193Z,999
2022-11-09T18:51:05.189Z,999
2022-11-09T18:54:05.216Z,999
2022-11-09T18:57:05.175Z,999
2022-11-09T19:00:05.253Z,999
2022-11-09T19:03:05.397Z,999
2022-11-09T19:06:05.330Z,999
2022-11-09T19:09:05.130Z,1000
2022-11-09T19:12:05.146Z,1000
2022-11-09T19:15:05.226Z,1000
2022-11-09T19:18:05.177Z,1000
2022-11-09T19:21:05.164Z,1000
2022-11-09T19:24:05.207Z,1000
2022-11-09T19:27:05.271Z,1000
2022-11-09T19:30:13.754Z,1000
2022-11-09T19:33:05.149Z,1000
2022-11-09T19:36:35.390Z,1000
2022-11-09T19:39:05.228Z,1000
2022-11-09T19:42:05.165Z,1000
2022-11-09T19:45:05.174Z,1000
2022-11-09T19:48:05.197Z,1000
2022-11-09T19:51:05.143Z,1000
2022-11-09T19:54:05.197Z,1000
2022-11-09T19:57:05.137Z,1000
2022-11-09T20:00:05.239Z,1000
2022-11-09T20:03:05.176Z,1000
2022-11-09T20:06:05.374Z,1000
2022-11-09T20:09:05.230Z,1000
2022-11-09T20:12:05.141Z,1000
2022-11-09T20:15:05.228Z,1000
2022-11-09T20:18:05.477Z,1000
2022-11-09T20:21:05.249Z,1000
2022-11-09T20:24:05.181Z,1000
2022-11-09T20:27:05.151Z,1000
2022-11-09T20:30:05.148Z,1000
2022-11-09T20:33:05.218Z,1001
2022-11-09T20:36:05.237Z,1001
2022-11-09T20:39:05.203Z,1001
2022-11-09T20:42:05.135Z,1001
2022-11-09T20:45:05.125Z,1001
2022-11-09T20:48:56.432Z,1001
2022-11-09T20:51:05.138Z,1001
2022-11-09T20:54:12.765Z,1001
2022-11-09T20:57:05.103Z,1001
2022-11-09T21:00:05.385Z,1001
2022-11-09T21:03:05.077Z,1001
2022-11-09T21:06:05.155Z,1001
2022-11-09T21:09:05.171Z,1001
2022-11-09T21:12:05.111Z,1001
2022-11-09T21:15:05.149Z,1001
2022-11-09T21:18:05.148Z,1001
2022-11-09T21:21:05.384Z,1002
2022-11-09T21:24:05.119Z,1002
2022-11-09T21:27:05.167Z,1002
2022-11-09T21:30:05.235Z,1002
2022-11-09T21:33:05.186Z,1001
2022-11-09T21:36:05.175Z,1001
2022-11-09T21:39:05.171Z,1001
2022-11-09T21:42:05.128Z,1001
2022-11-09T21:45:05.476Z,1001
2022-11-09T21:48:05.172Z,1001
2022-11-09T21:51:05.216Z,1001
2022-11-09T21:54:05.260Z,1001
2022-11-09T21:57:05.135Z,1001
2022-11-09T22:00:05.250Z,1002
2022-11-09T22:03:05.187Z,1002
2022-11-09T22:06:05.166Z,1002
2022-11-09T22:09:05.314Z,1002
2022-11-09T22:12:05.186Z,1002
2022-11-09T22:15:05.139Z,1002
2022-11-09T22:18:05.221Z,1002
2022-11-09T22:21:05.216Z,1002
2022-11-09T22:24:05.188Z,1002
2022-11-09T22:27:05.143Z,1002
2022-11-09T22:30:05.176Z,1002
2022-11-09T22:33:05.192Z,1002
2022-11-09T22:36:05.205Z,1002
2022-11-09T22:39:05.146Z,1002
2022-11-09T22:42:05.157Z,1002
2022-11-09T22:45:05.174Z,1002
2022-11-09T22:48:05.258Z,1002
2022-11-09T22:51:05.114Z,1002
2022-11-09T22:54:05.155Z,1002
2022-11-09T22:57:05.108Z,1002
2022-11-09T23:00:05.604Z,1002
2022-11-09T23:03:05.129Z,1002
2022-11-09T23:06:05.175Z,1002
2022-11-09T23:09:05.138Z,1002
2022-11-09T23:12:05.265Z,1003
2022-11-09T23:15:05.354Z,1003
2022-11-09T23:18:05.182Z,1003
2022-11-09T23:21:05.178Z,1003
2022-11-09T23:24:05.136Z,1003
2022-11-09T23:27:05.166Z,1003
2022-11-09T23:30:05.196Z,1003
2022-11-09T23:33:05.167Z,1003
2022-11-09T23:36:05.483Z,1003
2022-11-09T23:39:05.127Z,1003
2022-11-09T23:42:05.185Z,1003
2022-11-09T23:45:05.172Z,1003
2022-11-09T23:48:05.190Z,1003
2022-11-09T23:51:05.151Z,1003
2022-11-09T23:54:05.145Z,1003
2022-11-09T23:57:05.118Z,1003
